sensor_id;sensor_type;location;lat;lon;timestamp;pressure;altitude;pressure_sealevel;temperature;humidity
74790;BME280;63318;52.406;13.416;2023-04-07T00:00:06;101612.23;;;1.07;61.87
74790;BME280;63318;52.406;13.416;2023-04-07T00:02:35;101611.16;;;1.06;62.10
74790;BME280;63318;52.406;13.416;2023-04-07T00:05:04;101610.51;;;1.04;62.70
74790;BME280;63318;52.406;13.416;2023-04-07T00:07:32;101612.51;;;1.02;62.79
74790;BME280;63318;52.406;13.416;2023-04-07T00:10:02;101609.20;;;1.00;62.59
74790;BME280;63318;52.406;13.416;2023-04-07T00:12:30;101605.77;;;0.98;62.36
74790;BME280;63318;52.406;13.416;2023-04-07T00:15:00;101610.37;;;0.96;62.32
74790;BME280;63318;52.406;13.416;2023-04-07T00:17:28;101608.96;;;0.94;62.57
74790;BME280;63318;52.406;13.416;2023-04-07T00:19:57;101608.76;;;0.92;62.76
74790;BME280;63318;52.406;13.416;2023-04-07T00:22:25;101607.30;;;0.90;62.84
74790;BME280;63318;52.406;13.416;2023-04-07T00:24:54;101608.77;;;0.87;63.06
74790;BME280;63318;52.406;13.416;2023-04-07T00:27:22;101611.61;;;0.85;62.76
74790;BME280;63318;52.406;13.416;2023-04-07T00:29:51;101612.17;;;0.83;63.03
74790;BME280;63318;52.406;13.416;2023-04-07T00:32:20;101609.70;;;0.81;62.86
74790;BME280;63318;52.406;13.416;2023-04-07T00:34:49;101608.46;;;0.80;63.12
74790;BME280;63318;52.406;13.416;2023-04-07T00:37:17;101608.98;;;0.77;62.89
74790;BME280;63318;52.406;13.416;2023-04-07T00:39:47;101608.30;;;0.75;63.08
74790;BME280;63318;52.406;13.416;2023-04-07T00:42:15;101605.27;;;0.72;63.06
74790;BME280;63318;52.406;13.416;2023-04-07T00:44:44;101604.75;;;0.69;63.17
74790;BME280;63318;52.406;13.416;2023-04-07T00:47:13;101603.91;;;0.67;63.49
74790;BME280;63318;52.406;13.416;2023-04-07T00:49:42;101601.48;;;0.65;64.04
74790;BME280;63318;52.406;13.416;2023-04-07T00:52:12;101600.43;;;0.62;63.83
74790;BME280;63318;52.406;13.416;2023-04-07T00:54:42;101601.42;;;0.58;63.46
74790;BME280;63318;52.406;13.416;2023-04-07T00:57:13;101601.36;;;0.56;63.81
74790;BME280;63318;52.406;13.416;2023-04-07T00:59:42;101593.80;;;0.54;63.87
74790;BME280;63318;52.406;13.416;2023-04-07T01:02:16;101595.55;;;0.51;63.96
74790;BME280;63318;52.406;13.416;2023-04-07T01:04:50;101588.73;;;0.49;64.28
74790;BME280;63318;52.406;13.416;2023-04-07T01:07:26;101588.18;;;0.46;64.06
74790;BME280;63318;52.406;13.416;2023-04-07T01:10:00;101585.57;;;0.44;64.08
74790;BME280;63318;52.406;13.416;2023-04-07T01:12:35;101584.53;;;0.42;64.27
74790;BME280;63318;52.406;13.416;2023-04-07T01:15:11;101580.46;;;0.40;64.72
74790;BME280;63318;52.406;13.416;2023-04-07T01:17:44;101582.69;;;0.36;64.54
74790;BME280;63318;52.406;13.416;2023-04-07T01:20:13;101578.58;;;0.34;64.59
74790;BME280;63318;52.406;13.416;2023-04-07T01:22:46;101575.34;;;0.31;64.64
74790;BME280;63318;52.406;13.416;2023-04-07T01:25:31;101569.80;;;0.29;64.79
74790;BME280;63318;52.406;13.416;2023-04-07T01:28:21;101567.29;;;0.27;65.16
74790;BME280;63318;52.406;13.416;2023-04-07T01:30:58;101569.02;;;0.25;65.54
74790;BME280;63318;52.406;13.416;2023-04-07T01:33:30;101571.42;;;0.23;65.21
74790;BME280;63318;52.406;13.416;2023-04-07T01:36:01;101569.50;;;0.21;65.31
74790;BME280;63318;52.406;13.416;2023-04-07T01:38:31;101568.05;;;0.19;65.74
74790;BME280;63318;52.406;13.416;2023-04-07T01:41:01;101565.53;;;0.17;65.77
74790;BME280;63318;52.406;13.416;2023-04-07T01:43:31;101565.40;;;0.16;65.56
74790;BME280;63318;52.406;13.416;2023-04-07T01:46:02;101565.99;;;0.14;65.66
74790;BME280;63318;52.406;13.416;2023-04-07T01:48:31;101564.23;;;0.12;65.19
74790;BME280;63318;52.406;13.416;2023-04-07T01:51:03;101557.85;;;0.09;65.70
74790;BME280;63318;52.406;13.416;2023-04-07T01:53:33;101559.29;;;0.08;65.64
74790;BME280;63318;52.406;13.416;2023-04-07T01:56:01;101561.45;;;0.06;65.95
74790;BME280;63318;52.406;13.416;2023-04-07T01:58:30;101562.05;;;0.05;66.26
74790;BME280;63318;52.406;13.416;2023-04-07T02:00:59;101561.21;;;0.02;66.27
74790;BME280;63318;52.406;13.416;2023-04-07T02:03:30;101559.09;;;0.00;66.20
74790;BME280;63318;52.406;13.416;2023-04-07T02:06:05;101555.90;;;-0.02;66.17
74790;BME280;63318;52.406;13.416;2023-04-07T02:08:36;101556.12;;;-0.04;66.37
74790;BME280;63318;52.406;13.416;2023-04-07T02:11:07;101555.25;;;-0.06;66.38
74790;BME280;63318;52.406;13.416;2023-04-07T02:13:38;101554.25;;;-0.08;66.44
74790;BME280;63318;52.406;13.416;2023-04-07T02:16:08;101556.16;;;-0.09;66.83
74790;BME280;63318;52.406;13.416;2023-04-07T02:18:38;101554.04;;;-0.11;66.89
74790;BME280;63318;52.406;13.416;2023-04-07T02:21:08;101551.19;;;-0.13;66.65
74790;BME280;63318;52.406;13.416;2023-04-07T02:23:37;101551.67;;;-0.14;66.83
74790;BME280;63318;52.406;13.416;2023-04-07T02:26:06;101550.52;;;-0.15;66.95
74790;BME280;63318;52.406;13.416;2023-04-07T02:28:35;101547.67;;;-0.17;66.63
74790;BME280;63318;52.406;13.416;2023-04-07T02:31:04;101544.52;;;-0.18;66.42
74790;BME280;63318;52.406;13.416;2023-04-07T02:33:33;101546.27;;;-0.19;66.96
74790;BME280;63318;52.406;13.416;2023-04-07T02:36:01;101546.15;;;-0.20;67.26
74790;BME280;63318;52.406;13.416;2023-04-07T02:38:32;101540.79;;;-0.21;66.87
74790;BME280;63318;52.406;13.416;2023-04-07T02:41:01;101541.65;;;-0.23;66.98
74790;BME280;63318;52.406;13.416;2023-04-07T02:43:31;101542.31;;;-0.23;67.22
74790;BME280;63318;52.406;13.416;2023-04-07T02:46:00;101540.29;;;-0.25;67.26
74790;BME280;63318;52.406;13.416;2023-04-07T02:48:28;101539.04;;;-0.26;67.28
74790;BME280;63318;52.406;13.416;2023-04-07T02:50:59;101535.90;;;-0.28;67.16
74790;BME280;63318;52.406;13.416;2023-04-07T02:53:28;101537.79;;;-0.28;67.77
74790;BME280;63318;52.406;13.416;2023-04-07T02:55:56;101539.81;;;-0.30;67.41
74790;BME280;63318;52.406;13.416;2023-04-07T02:58:25;101545.02;;;-0.31;67.82
74790;BME280;63318;52.406;13.416;2023-04-07T03:00:54;101541.16;;;-0.32;67.84
74790;BME280;63318;52.406;13.416;2023-04-07T03:03:23;101538.55;;;-0.33;67.91
74790;BME280;63318;52.406;13.416;2023-04-07T03:05:52;101539.30;;;-0.33;67.95
74790;BME280;63318;52.406;13.416;2023-04-07T03:08:21;101539.91;;;-0.33;67.89
74790;BME280;63318;52.406;13.416;2023-04-07T03:10:50;101537.38;;;-0.35;67.79
74790;BME280;63318;52.406;13.416;2023-04-07T03:13:19;101539.17;;;-0.35;68.47
74790;BME280;63318;52.406;13.416;2023-04-07T03:15:48;101532.57;;;-0.36;68.08
74790;BME280;63318;52.406;13.416;2023-04-07T03:18:18;101531.23;;;-0.35;68.16
74790;BME280;63318;52.406;13.416;2023-04-07T03:20:48;101526.91;;;-0.36;68.21
74790;BME280;63318;52.406;13.416;2023-04-07T03:23:16;101530.57;;;-0.35;68.41
74790;BME280;63318;52.406;13.416;2023-04-07T03:25:45;101525.59;;;-0.34;68.12
74790;BME280;63318;52.406;13.416;2023-04-07T03:28:14;101523.02;;;-0.32;68.70
74790;BME280;63318;52.406;13.416;2023-04-07T03:30:42;101521.83;;;-0.31;68.83
74790;BME280;63318;52.406;13.416;2023-04-07T03:33:12;101522.05;;;-0.30;68.76
74790;BME280;63318;52.406;13.416;2023-04-07T03:35:41;101517.88;;;-0.29;68.65
74790;BME280;63318;52.406;13.416;2023-04-07T03:38:10;101516.52;;;-0.27;68.80
74790;BME280;63318;52.406;13.416;2023-04-07T03:40:41;101514.31;;;-0.25;69.17
74790;BME280;63318;52.406;13.416;2023-04-07T03:43:09;101510.73;;;-0.23;69.02
74790;BME280;63318;52.406;13.416;2023-04-07T03:45:38;101510.90;;;-0.21;68.87
74790;BME280;63318;52.406;13.416;2023-04-07T03:48:07;101513.28;;;-0.20;69.03
74790;BME280;63318;52.406;13.416;2023-04-07T03:50:37;101513.66;;;-0.17;69.06
74790;BME280;63318;52.406;13.416;2023-04-07T03:53:05;101510.53;;;-0.15;69.10
74790;BME280;63318;52.406;13.416;2023-04-07T03:55:35;101509.56;;;-0.13;68.86
74790;BME280;63318;52.406;13.416;2023-04-07T03:58:04;101508.86;;;-0.12;69.11
74790;BME280;63318;52.406;13.416;2023-04-07T04:00:32;101511.14;;;-0.10;69.47
74790;BME280;63318;52.406;13.416;2023-04-07T04:03:01;101511.76;;;-0.07;69.65
74790;BME280;63318;52.406;13.416;2023-04-07T04:05:30;101510.70;;;-0.05;69.80
74790;BME280;63318;52.406;13.416;2023-04-07T04:07:59;101512.42;;;-0.02;69.45
74790;BME280;63318;52.406;13.416;2023-04-07T04:10:28;101514.59;;;-0.01;69.26
74790;BME280;63318;52.406;13.416;2023-04-07T04:12:58;101511.63;;;0.01;69.48
74790;BME280;63318;52.406;13.416;2023-04-07T04:15:27;101511.91;;;0.04;69.24
74790;BME280;63318;52.406;13.416;2023-04-07T04:17:56;101512.67;;;0.06;69.66
74790;BME280;63318;52.406;13.416;2023-04-07T04:20:25;101513.91;;;0.08;69.85
74790;BME280;63318;52.406;13.416;2023-04-07T04:22:54;101516.06;;;0.11;69.64
74790;BME280;63318;52.406;13.416;2023-04-07T04:25:23;101518.32;;;0.13;69.84
74790;BME280;63318;52.406;13.416;2023-04-07T04:27:54;101515.34;;;0.16;69.69
74790;BME280;63318;52.406;13.416;2023-04-07T04:30:23;101512.00;;;0.17;69.67
74790;BME280;63318;52.406;13.416;2023-04-07T04:32:52;101511.19;;;0.19;69.75
74790;BME280;63318;52.406;13.416;2023-04-07T04:35:22;101514.38;;;0.22;69.70
74790;BME280;63318;52.406;13.416;2023-04-07T04:37:50;101513.70;;;0.24;69.52
74790;BME280;63318;52.406;13.416;2023-04-07T04:40:19;101513.17;;;0.25;69.30
74790;BME280;63318;52.406;13.416;2023-04-07T04:42:48;101516.58;;;0.28;69.37
74790;BME280;63318;52.406;13.416;2023-04-07T04:45:16;101518.14;;;0.29;69.43
74790;BME280;63318;52.406;13.416;2023-04-07T04:47:47;101520.31;;;0.31;69.05
74790;BME280;63318;52.406;13.416;2023-04-07T04:50:16;101521.10;;;0.33;69.36
74790;BME280;63318;52.406;13.416;2023-04-07T04:52:45;101518.70;;;0.35;69.23
74790;BME280;63318;52.406;13.416;2023-04-07T04:55:13;101525.08;;;0.38;69.50
74790;BME280;63318;52.406;13.416;2023-04-07T04:57:42;101525.02;;;0.40;69.53
74790;BME280;63318;52.406;13.416;2023-04-07T05:00:17;101520.14;;;0.42;69.34
74790;BME280;63318;52.406;13.416;2023-04-07T05:02:45;101527.13;;;0.46;69.49
74790;BME280;63318;52.406;13.416;2023-04-07T05:05:14;101525.23;;;0.50;69.72
74790;BME280;63318;52.406;13.416;2023-04-07T05:07:42;101527.98;;;0.54;69.69
74790;BME280;63318;52.406;13.416;2023-04-07T05:10:11;101525.65;;;0.58;69.32
74790;BME280;63318;52.406;13.416;2023-04-07T05:12:42;101528.32;;;0.63;70.15
74790;BME280;63318;52.406;13.416;2023-04-07T05:15:12;101530.31;;;0.67;70.10
74790;BME280;63318;52.406;13.416;2023-04-07T05:17:42;101524.06;;;0.72;70.05
74790;BME280;63318;52.406;13.416;2023-04-07T05:20:11;101522.41;;;0.78;69.90
74790;BME280;63318;52.406;13.416;2023-04-07T05:22:40;101520.50;;;0.83;70.06
74790;BME280;63318;52.406;13.416;2023-04-07T05:25:10;101518.38;;;0.89;70.31
74790;BME280;63318;52.406;13.416;2023-04-07T05:27:40;101523.02;;;0.94;70.26
74790;BME280;63318;52.406;13.416;2023-04-07T05:30:10;101519.07;;;0.97;69.96
74790;BME280;63318;52.406;13.416;2023-04-07T05:32:38;101523.03;;;1.02;69.78
74790;BME280;63318;52.406;13.416;2023-04-07T05:35:09;101522.74;;;1.06;70.12
74790;BME280;63318;52.406;13.416;2023-04-07T05:37:41;101520.26;;;1.09;69.90
74790;BME280;63318;52.406;13.416;2023-04-07T05:40:12;101518.61;;;1.13;69.46
74790;BME280;63318;52.406;13.416;2023-04-07T05:42:40;101518.67;;;1.17;69.55
74790;BME280;63318;52.406;13.416;2023-04-07T05:45:10;101519.51;;;1.22;69.22
74790;BME280;63318;52.406;13.416;2023-04-07T05:47:39;101518.57;;;1.28;69.71
74790;BME280;63318;52.406;13.416;2023-04-07T05:50:09;101520.22;;;1.34;69.69
74790;BME280;63318;52.406;13.416;2023-04-07T05:52:38;101520.88;;;1.40;69.49
74790;BME280;63318;52.406;13.416;2023-04-07T05:55:08;101516.82;;;1.46;69.44
74790;BME280;63318;52.406;13.416;2023-04-07T05:57:37;101516.59;;;1.54;69.86
74790;BME280;63318;52.406;13.416;2023-04-07T06:00:08;101512.27;;;1.60;70.10
74790;BME280;63318;52.406;13.416;2023-04-07T06:02:39;101513.94;;;1.68;69.88
74790;BME280;63318;52.406;13.416;2023-04-07T06:05:08;101515.23;;;1.77;70.31
74790;BME280;63318;52.406;13.416;2023-04-07T06:07:37;101520.46;;;1.86;69.84
74790;BME280;63318;52.406;13.416;2023-04-07T06:10:08;101518.44;;;1.96;69.30
74790;BME280;63318;52.406;13.416;2023-04-07T06:12:36;101524.33;;;2.07;69.91
74790;BME280;63318;52.406;13.416;2023-04-07T06:15:06;101525.12;;;2.18;70.02
74790;BME280;63318;52.406;13.416;2023-04-07T06:17:37;101525.79;;;2.30;70.07
74790;BME280;63318;52.406;13.416;2023-04-07T06:20:08;101521.08;;;2.44;69.78
74790;BME280;63318;52.406;13.416;2023-04-07T06:22:36;101524.66;;;2.58;69.03
74790;BME280;63318;52.406;13.416;2023-04-07T06:25:06;101526.65;;;2.69;68.91
74790;BME280;63318;52.406;13.416;2023-04-07T06:27:36;101527.20;;;2.80;69.03
74790;BME280;63318;52.406;13.416;2023-04-07T06:30:06;101535.86;;;2.91;68.30
74790;BME280;63318;52.406;13.416;2023-04-07T06:32:35;101537.09;;;3.02;67.79
74790;BME280;63318;52.406;13.416;2023-04-07T06:35:04;101532.10;;;3.11;67.61
74790;BME280;63318;52.406;13.416;2023-04-07T06:37:32;101535.63;;;3.20;67.36
74790;BME280;63318;52.406;13.416;2023-04-07T06:40:00;101534.59;;;3.28;67.63
74790;BME280;63318;52.406;13.416;2023-04-07T06:42:29;101543.15;;;3.36;67.09
74790;BME280;63318;52.406;13.416;2023-04-07T06:44:58;101539.20;;;3.43;67.08
74790;BME280;63318;52.406;13.416;2023-04-07T06:47:26;101537.98;;;3.51;66.66
74790;BME280;63318;52.406;13.416;2023-04-07T06:49:55;101540.48;;;3.58;66.61
74790;BME280;63318;52.406;13.416;2023-04-07T06:52:23;101537.63;;;3.66;66.91
74790;BME280;63318;52.406;13.416;2023-04-07T06:54:52;101537.05;;;3.74;66.86
74790;BME280;63318;52.406;13.416;2023-04-07T06:57:20;101536.76;;;3.81;66.45
74790;BME280;63318;52.406;13.416;2023-04-07T06:59:49;101537.38;;;3.90;66.19
74790;BME280;63318;52.406;13.416;2023-04-07T07:02:17;101543.40;;;3.99;66.11
74790;BME280;63318;52.406;13.416;2023-04-07T07:04:46;101543.21;;;4.08;65.80
74790;BME280;63318;52.406;13.416;2023-04-07T07:07:14;101542.92;;;4.17;65.93
74790;BME280;63318;52.406;13.416;2023-04-07T07:09:44;101544.39;;;4.26;65.64
74790;BME280;63318;52.406;13.416;2023-04-07T07:12:12;101543.70;;;4.36;65.17
74790;BME280;63318;52.406;13.416;2023-04-07T07:14:41;101546.69;;;4.46;65.08
74790;BME280;63318;52.406;13.416;2023-04-07T07:17:09;101549.16;;;4.56;65.02
74790;BME280;63318;52.406;13.416;2023-04-07T07:19:38;101546.81;;;4.66;64.69
74790;BME280;63318;52.406;13.416;2023-04-07T07:22:07;101543.23;;;4.75;64.19
74790;BME280;63318;52.406;13.416;2023-04-07T07:24:36;101546.03;;;4.85;64.16
74790;BME280;63318;52.406;13.416;2023-04-07T07:27:04;101546.76;;;4.93;63.43
74790;BME280;63318;52.406;13.416;2023-04-07T07:29:33;101551.38;;;5.03;63.54
74790;BME280;63318;52.406;13.416;2023-04-07T07:32:02;101549.14;;;5.15;63.30
74790;BME280;63318;52.406;13.416;2023-04-07T07:34:31;101549.88;;;5.27;62.85
74790;BME280;63318;52.406;13.416;2023-04-07T07:36:59;101547.00;;;5.39;62.63
74790;BME280;63318;52.406;13.416;2023-04-07T07:39:29;101549.30;;;5.51;62.61
74790;BME280;63318;52.406;13.416;2023-04-07T07:41:57;101550.98;;;5.61;62.39
74790;BME280;63318;52.406;13.416;2023-04-07T07:44:26;101556.48;;;5.69;61.67
74790;BME280;63318;52.406;13.416;2023-04-07T07:46:55;101552.60;;;5.73;61.71
74790;BME280;63318;52.406;13.416;2023-04-07T07:49:24;101557.77;;;5.79;61.61
74790;BME280;63318;52.406;13.416;2023-04-07T07:51:53;101553.86;;;5.85;61.34
74790;BME280;63318;52.406;13.416;2023-04-07T07:54:22;101547.48;;;5.94;61.08
74790;BME280;63318;52.406;13.416;2023-04-07T07:56:52;101556.31;;;6.04;60.93
74790;BME280;63318;52.406;13.416;2023-04-07T07:59:20;101553.46;;;6.13;61.30
74790;BME280;63318;52.406;13.416;2023-04-07T08:01:49;101555.27;;;6.21;61.10
74790;BME280;63318;52.406;13.416;2023-04-07T08:04:18;101556.64;;;6.30;60.68
74790;BME280;63318;52.406;13.416;2023-04-07T08:06:46;101552.42;;;6.38;60.44
74790;BME280;63318;52.406;13.416;2023-04-07T08:09:15;101555.98;;;6.49;60.81
74790;BME280;63318;52.406;13.416;2023-04-07T08:11:44;101556.14;;;6.58;60.64
74790;BME280;63318;52.406;13.416;2023-04-07T08:14:14;101556.15;;;6.65;60.24
74790;BME280;63318;52.406;13.416;2023-04-07T08:16:43;101554.77;;;6.71;60.42
74790;BME280;63318;52.406;13.416;2023-04-07T08:19:13;101554.67;;;6.79;60.42
74790;BME280;63318;52.406;13.416;2023-04-07T08:21:41;101555.92;;;6.85;60.06
74790;BME280;63318;52.406;13.416;2023-04-07T08:24:10;101554.96;;;6.94;59.74
74790;BME280;63318;52.406;13.416;2023-04-07T08:26:38;101554.59;;;7.04;59.71
74790;BME280;63318;52.406;13.416;2023-04-07T08:29:07;101557.73;;;7.15;59.69
74790;BME280;63318;52.406;13.416;2023-04-07T08:31:35;101557.78;;;7.24;59.22
74790;BME280;63318;52.406;13.416;2023-04-07T08:34:04;101557.13;;;7.32;59.20
74790;BME280;63318;52.406;13.416;2023-04-07T08:36:32;101552.29;;;7.41;58.71
74790;BME280;63318;52.406;13.416;2023-04-07T08:39:01;101557.08;;;7.48;58.65
74790;BME280;63318;52.406;13.416;2023-04-07T08:41:35;101554.89;;;7.55;58.17
74790;BME280;63318;52.406;13.416;2023-04-07T08:44:04;101556.86;;;7.62;57.89
74790;BME280;63318;52.406;13.416;2023-04-07T08:46:34;101557.02;;;7.67;57.40
74790;BME280;63318;52.406;13.416;2023-04-07T08:49:06;101560.35;;;7.74;55.99
74790;BME280;63318;52.406;13.416;2023-04-07T08:51:36;101562.58;;;7.79;54.88
74790;BME280;63318;52.406;13.416;2023-04-07T08:54:10;101561.11;;;7.80;53.33
74790;BME280;63318;52.406;13.416;2023-04-07T08:56:40;101563.38;;;7.82;53.21
74790;BME280;63318;52.406;13.416;2023-04-07T08:59:11;101569.57;;;7.86;53.53
74790;BME280;63318;52.406;13.416;2023-04-07T09:01:41;101570.23;;;7.90;53.94
74790;BME280;63318;52.406;13.416;2023-04-07T09:04:10;101570.41;;;7.95;53.37
74790;BME280;63318;52.406;13.416;2023-04-07T09:06:39;101578.64;;;8.00;53.50
74790;BME280;63318;52.406;13.416;2023-04-07T09:09:08;101577.56;;;8.03;52.85
74790;BME280;63318;52.406;13.416;2023-04-07T09:11:38;101577.38;;;8.07;52.99
74790;BME280;63318;52.406;13.416;2023-04-07T09:14:06;101571.63;;;8.09;52.33
74790;BME280;63318;52.406;13.416;2023-04-07T09:16:39;101570.21;;;8.10;52.52
74790;BME280;63318;52.406;13.416;2023-04-07T09:19:07;101573.78;;;8.13;52.47
74790;BME280;63318;52.406;13.416;2023-04-07T09:21:52;101571.42;;;8.14;52.44
74790;BME280;63318;52.406;13.416;2023-04-07T09:24:25;101570.77;;;8.16;52.54
74790;BME280;63318;52.406;13.416;2023-04-07T09:27:11;101572.66;;;8.17;52.55
74790;BME280;63318;52.406;13.416;2023-04-07T09:29:42;101574.77;;;8.17;52.62
74790;BME280;63318;52.406;13.416;2023-04-07T09:32:12;101576.73;;;8.16;52.70
74790;BME280;63318;52.406;13.416;2023-04-07T09:34:58;101577.70;;;8.15;52.71
74790;BME280;63318;52.406;13.416;2023-04-07T09:37:27;101579.55;;;8.16;53.04
74790;BME280;63318;52.406;13.416;2023-04-07T09:39:56;101579.42;;;8.17;53.00
74790;BME280;63318;52.406;13.416;2023-04-07T09:42:24;101586.45;;;8.17;52.83
74790;BME280;63318;52.406;13.416;2023-04-07T09:44:53;101581.53;;;8.18;52.67
74790;BME280;63318;52.406;13.416;2023-04-07T09:47:27;101584.35;;;8.20;52.54
74790;BME280;63318;52.406;13.416;2023-04-07T09:49:56;101581.73;;;8.21;52.68
74790;BME280;63318;52.406;13.416;2023-04-07T09:52:49;101580.86;;;8.22;52.63
74790;BME280;63318;52.406;13.416;2023-04-07T09:55:20;101581.79;;;8.21;52.53
74790;BME280;63318;52.406;13.416;2023-04-07T09:57:49;101585.11;;;8.19;52.53
74790;BME280;63318;52.406;13.416;2023-04-07T10:00:19;101590.32;;;8.15;52.33
74790;BME280;63318;52.406;13.416;2023-04-07T10:02:48;101591.36;;;8.10;52.15
74790;BME280;63318;52.406;13.416;2023-04-07T10:05:18;101585.71;;;8.10;52.15
74790;BME280;63318;52.406;13.416;2023-04-07T10:07:47;101587.77;;;8.09;52.06
74790;BME280;63318;52.406;13.416;2023-04-07T10:10:16;101593.02;;;8.08;51.68
74790;BME280;63318;52.406;13.416;2023-04-07T10:12:44;101592.66;;;8.07;51.20
74790;BME280;63318;52.406;13.416;2023-04-07T10:15:14;101593.13;;;8.06;51.21
74790;BME280;63318;52.406;13.416;2023-04-07T10:17:47;101591.42;;;8.06;51.46
74790;BME280;63318;52.406;13.416;2023-04-07T10:20:19;101590.35;;;8.10;52.05
74790;BME280;63318;52.406;13.416;2023-04-07T10:22:49;101591.51;;;8.10;51.67
74790;BME280;63318;52.406;13.416;2023-04-07T10:25:20;101593.42;;;8.09;51.38
74790;BME280;63318;52.406;13.416;2023-04-07T10:27:52;101594.61;;;8.07;51.54
74790;BME280;63318;52.406;13.416;2023-04-07T10:30:25;101591.58;;;8.06;51.65
74790;BME280;63318;52.406;13.416;2023-04-07T10:32:55;101594.14;;;8.04;51.19
74790;BME280;63318;52.406;13.416;2023-04-07T10:35:25;101591.08;;;8.04;51.10
74790;BME280;63318;52.406;13.416;2023-04-07T10:38:11;101590.64;;;8.05;51.19
74790;BME280;63318;52.406;13.416;2023-04-07T10:40:43;101590.35;;;8.07;51.19
74790;BME280;63318;52.406;13.416;2023-04-07T10:43:12;101590.45;;;8.03;50.37
74790;BME280;63318;52.406;13.416;2023-04-07T10:46:00;101589.18;;;8.03;50.88
74790;BME280;63318;52.406;13.416;2023-04-07T10:48:28;101589.66;;;8.03;49.86
74790;BME280;63318;52.406;13.416;2023-04-07T10:51:17;101588.16;;;8.03;49.85
74790;BME280;63318;52.406;13.416;2023-04-07T10:57:08;101585.71;;;8.08;50.41
74790;BME280;63318;52.406;13.416;2023-04-07T10:59:39;101589.27;;;8.13;51.01
74790;BME280;63318;52.406;13.416;2023-04-07T11:02:30;101582.98;;;8.15;50.67
74790;BME280;63318;52.406;13.416;2023-04-07T11:05:00;101586.76;;;8.19;50.85
74790;BME280;63318;52.406;13.416;2023-04-07T11:07:48;101582.86;;;8.20;50.38
74790;BME280;63318;52.406;13.416;2023-04-07T11:10:17;101579.42;;;8.22;51.06
74790;BME280;63318;52.406;13.416;2023-04-07T11:12:58;101582.88;;;8.26;50.79
74790;BME280;63318;52.406;13.416;2023-04-07T11:15:27;101581.27;;;8.24;50.98
74790;BME280;63318;52.406;13.416;2023-04-07T11:18:10;101580.88;;;8.24;51.35
74790;BME280;63318;52.406;13.416;2023-04-07T11:20:50;101578.73;;;8.26;52.18
74790;BME280;63318;52.406;13.416;2023-04-07T11:23:21;101576.45;;;8.30;52.59
74790;BME280;63318;52.406;13.416;2023-04-07T11:25:51;101579.20;;;8.34;52.58
74790;BME280;63318;52.406;13.416;2023-04-07T11:28:20;101578.13;;;8.35;53.00
74790;BME280;63318;52.406;13.416;2023-04-07T11:30:50;101582.34;;;8.35;53.02
74790;BME280;63318;52.406;13.416;2023-04-07T11:33:24;101580.36;;;8.31;53.17
74790;BME280;63318;52.406;13.416;2023-04-07T11:35:59;101577.77;;;8.25;53.96
74790;BME280;63318;52.406;13.416;2023-04-07T11:38:34;101578.10;;;8.22;54.22
74790;BME280;63318;52.406;13.416;2023-04-07T11:41:11;101578.55;;;8.15;54.89
74790;BME280;63318;52.406;13.416;2023-04-07T11:43:40;101584.22;;;8.12;55.67
74790;BME280;63318;52.406;13.416;2023-04-07T11:46:11;101582.32;;;8.12;55.38
74790;BME280;63318;52.406;13.416;2023-04-07T11:48:40;101580.26;;;8.05;57.09
74790;BME280;63318;52.406;13.416;2023-04-07T11:51:16;101583.04;;;8.01;58.60
74790;BME280;63318;52.406;13.416;2023-04-07T11:53:45;101579.05;;;8.01;57.93
74790;BME280;63318;52.406;13.416;2023-04-07T11:56:16;101583.23;;;8.00;57.91
74790;BME280;63318;52.406;13.416;2023-04-07T11:58:49;101583.67;;;8.00;58.38
74790;BME280;63318;52.406;13.416;2023-04-07T12:01:18;101583.67;;;7.98;59.76
74790;BME280;63318;52.406;13.416;2023-04-07T12:04:01;101583.39;;;8.00;59.77
74790;BME280;63318;52.406;13.416;2023-04-07T12:06:31;101579.42;;;8.01;60.29
74790;BME280;63318;52.406;13.416;2023-04-07T12:09:01;101578.07;;;8.01;60.56
74790;BME280;63318;52.406;13.416;2023-04-07T12:11:30;101578.14;;;8.04;59.96
74790;BME280;63318;52.406;13.416;2023-04-07T12:13:58;101581.82;;;8.01;60.92
74790;BME280;63318;52.406;13.416;2023-04-07T12:16:28;101581.65;;;7.95;60.94
74790;BME280;63318;52.406;13.416;2023-04-07T12:18:57;101585.51;;;7.90;60.86
74790;BME280;63318;52.406;13.416;2023-04-07T12:21:25;101584.61;;;7.83;61.90
74790;BME280;63318;52.406;13.416;2023-04-07T12:23:53;101581.84;;;7.77;61.60
74790;BME280;63318;52.406;13.416;2023-04-07T12:26:22;101581.98;;;7.69;62.16
74790;BME280;63318;52.406;13.416;2023-04-07T12:28:51;101576.36;;;7.61;62.28
74790;BME280;63318;52.406;13.416;2023-04-07T12:31:20;101579.29;;;7.53;62.74
74790;BME280;63318;52.406;13.416;2023-04-07T12:33:49;101580.28;;;7.49;63.58
74790;BME280;63318;52.406;13.416;2023-04-07T12:36:17;101583.60;;;7.47;63.52
74790;BME280;63318;52.406;13.416;2023-04-07T12:38:46;101585.00;;;7.42;63.28
74790;BME280;63318;52.406;13.416;2023-04-07T12:41:14;101582.84;;;7.36;63.70
74790;BME280;63318;52.406;13.416;2023-04-07T12:43:42;101584.69;;;7.28;64.18
74790;BME280;63318;52.406;13.416;2023-04-07T12:46:12;101583.30;;;7.24;64.47
74790;BME280;63318;52.406;13.416;2023-04-07T12:48:40;101585.92;;;7.21;64.62
74790;BME280;63318;52.406;13.416;2023-04-07T12:51:16;101585.45;;;7.18;65.19
74790;BME280;63318;52.406;13.416;2023-04-07T12:53:44;101584.45;;;7.14;65.12
74790;BME280;63318;52.406;13.416;2023-04-07T12:56:13;101584.35;;;7.11;64.95
74790;BME280;63318;52.406;13.416;2023-04-07T12:58:41;101582.83;;;7.06;65.18
74790;BME280;63318;52.406;13.416;2023-04-07T13:01:09;101578.13;;;7.02;66.21
74790;BME280;63318;52.406;13.416;2023-04-07T13:03:38;101578.48;;;7.01;66.04
74790;BME280;63318;52.406;13.416;2023-04-07T13:06:07;101583.72;;;6.99;65.93